OCN2Y LPMA-EDDF
Flight info
| Callsign | OCN2Y |
|---|---|
| Flight time | 3h 46m |
| Altitude | 36000 |
| Route | DEGUN DCT DEMOS DCT LOTEE DCT AZFIC/N0435F380 DCT ERIGA DCT MOKOR UN741 NTS DCT GONEK DCT TABOV DCT TSU DCT OQQAL DCT RANUX/N0436F370 DCT VALEK DCT LUTAX DCT DIK T856 NIVNU/N0354F230 T847 IMCOM IMCOM1C |
| Aircraft | A320/M-SDE2E3FGIJ1LORWXYZ/HB1 |
Departure
| Time | 2026-04-14 11:52 |
|---|---|
| Airport | Cristiano Ronaldo International Airport (LPMA) |
Arrival
| Time | 2026-04-14 15:38 |
|---|---|
| Airport | Frankfurt Main Airport (EDDF) |
| Time | Latitude | Longitude | Altitude | Speed | Heading |
|---|---|---|---|---|---|
| 2026-04-14 11:30 | 32.69437 | -16.77556 | 177 ft | 0 kts | 138° |
| 2026-04-14 11:42 | 32.69438 | -16.77557 | 176 ft | 2 kts | 139° |
| 2026-04-14 11:42 | 32.69458 | -16.77576 | 176 ft | 4 kts | 147° |
| 2026-04-14 11:43 | 32.69482 | -16.77590 | 176 ft | 4 kts | 167° |
| 2026-04-14 11:43 | 32.69505 | -16.77590 | 176 ft | 4 kts | 216° |
| 2026-04-14 11:43 | 32.69513 | -16.77582 | 176 ft | 1 kts | 226° |
| 2026-04-14 11:46 | 32.69513 | -16.77583 | 176 ft | 0 kts | 226° |
| 2026-04-14 11:46 | 32.69492 | -16.77609 | 176 ft | 7 kts | 226° |
| 2026-04-14 11:46 | 32.69460 | -16.77648 | 176 ft | 7 kts | 226° |
| 2026-04-14 11:46 | 32.69420 | -16.77698 | 176 ft | 8 kts | 226° |
| 2026-04-14 11:47 | 32.69385 | -16.77740 | 176 ft | 6 kts | 226° |
| 2026-04-14 11:47 | 32.69347 | -16.77788 | 176 ft | 8 kts | 226° |
| 2026-04-14 11:47 | 32.69313 | -16.77829 | 176 ft | 6 kts | 226° |
| 2026-04-14 11:47 | 32.69292 | -16.77865 | 176 ft | 5 kts | 251° |
| 2026-04-14 11:48 | 32.69289 | -16.77906 | 176 ft | 9 kts | 269° |
| 2026-04-14 11:48 | 32.69288 | -16.77981 | 176 ft | 8 kts | 269° |
| 2026-04-14 11:48 | 32.69262 | -16.78062 | 176 ft | 12 kts | 228° |
| 2026-04-14 11:48 | 32.69206 | -16.78127 | 176 ft | 11 kts | 224° |
| 2026-04-14 11:49 | 32.69152 | -16.78191 | 176 ft | 16 kts | 225° |
| 2026-04-14 11:49 | 32.69067 | -16.78292 | 176 ft | 17 kts | 225° |
| 2026-04-14 11:49 | 32.68997 | -16.78373 | 176 ft | 9 kts | 222° |
| 2026-04-14 11:49 | 32.68937 | -16.78399 | 176 ft | 10 kts | 196° |
| 2026-04-14 11:50 | 32.68887 | -16.78437 | 176 ft | 8 kts | 254° |
| 2026-04-14 11:50 | 32.68915 | -16.78468 | 176 ft | 5 kts | 12° |
| 2026-04-14 11:50 | 32.68929 | -16.78451 | 176 ft | 0 kts | 45° |
| 2026-04-14 11:51 | 32.68934 | -16.78446 | 176 ft | 5 kts | 45° |
| 2026-04-14 11:51 | 32.69141 | -16.78205 | 176 ft | 79 kts | 44° |
| 2026-04-14 11:51 | 32.69688 | -16.77565 | 177 ft | 139 kts | 44° |
| 2026-04-14 11:51 | 32.70456 | -16.76667 | 482 ft | 164 kts | 43° |
| 2026-04-14 11:52 | 32.71184 | -16.75574 | 1144 ft | 178 kts | 66° |
| 2026-04-14 11:52 | 32.71264 | -16.74040 | 1503 ft | 203 kts | 103° |
| 2026-04-14 11:52 | 32.70741 | -16.72369 | 1857 ft | 228 kts | 109° |
| 2026-04-14 11:52 | 32.70124 | -16.70540 | 2345 ft | 246 kts | 109° |
| 2026-04-14 11:53 | 32.69479 | -16.68645 | 3202 ft | 248 kts | 109° |
| 2026-04-14 11:53 | 32.68833 | -16.66735 | 4077 ft | 251 kts | 109° |
| 2026-04-14 11:53 | 32.68184 | -16.64791 | 4895 ft | 256 kts | 109° |
| 2026-04-14 11:53 | 32.67523 | -16.62801 | 5698 ft | 262 kts | 109° |
| 2026-04-14 11:54 | 32.66872 | -16.60824 | 6505 ft | 266 kts | 109° |
| 2026-04-14 11:54 | 32.66198 | -16.58765 | 7283 ft | 270 kts | 108° |
| 2026-04-14 11:54 | 32.65808 | -16.56589 | 8008 ft | 272 kts | 90° |
| 2026-04-14 11:54 | 32.66052 | -16.54362 | 8771 ft | 275 kts | 71° |
| 2026-04-14 11:55 | 32.66918 | -16.52341 | 9495 ft | 278 kts | 52° |
| 2026-04-14 11:55 | 32.68272 | -16.50681 | 10231 ft | 282 kts | 43° |
| 2026-04-14 11:55 | 32.69720 | -16.49051 | 10661 ft | 297 kts | 43° |
| 2026-04-14 11:55 | 32.71275 | -16.47292 | 10867 ft | 320 kts | 43° |
| 2026-04-14 11:56 | 32.72913 | -16.45432 | 11352 ft | 330 kts | 43° |
| 2026-04-14 11:56 | 32.74582 | -16.43528 | 11959 ft | 336 kts | 44° |
| 2026-04-14 11:56 | 32.76273 | -16.41595 | 12623 ft | 339 kts | 43° |
| 2026-04-14 11:56 | 32.77984 | -16.39640 | 13270 ft | 344 kts | 43° |
| 2026-04-14 11:57 | 32.79716 | -16.37658 | 13881 ft | 348 kts | 43° |
| 2026-04-14 11:57 | 32.81468 | -16.35652 | 14452 ft | 352 kts | 43° |
| 2026-04-14 11:57 | 32.83242 | -16.33619 | 15002 ft | 356 kts | 43° |
| 2026-04-14 11:57 | 32.85029 | -16.31574 | 15583 ft | 358 kts | 43° |
| 2026-04-14 11:58 | 32.86837 | -16.29508 | 16129 ft | 362 kts | 43° |
| 2026-04-14 11:58 | 32.88663 | -16.27422 | 16661 ft | 366 kts | 42° |
| 2026-04-14 11:58 | 32.90482 | -16.25334 | 17171 ft | 371 kts | 43° |
| 2026-04-14 11:58 | 32.92344 | -16.23193 | 17709 ft | 374 kts | 41° |
| 2026-04-14 11:59 | 32.94226 | -16.21027 | 18246 ft | 378 kts | 43° |
| 2026-04-14 11:59 | 32.96125 | -16.18840 | 18749 ft | 382 kts | 42° |
| 2026-04-14 11:59 | 32.98041 | -16.16633 | 19204 ft | 385 kts | 42° |
| 2026-04-14 11:59 | 32.99975 | -16.14401 | 19661 ft | 388 kts | 42° |
| 2026-04-14 12:00 | 33.01921 | -16.12154 | 20118 ft | 392 kts | 43° |
| 2026-04-14 12:00 | 33.03887 | -16.09883 | 20558 ft | 395 kts | 43° |
| 2026-04-14 12:00 | 33.05871 | -16.07596 | 21005 ft | 399 kts | 43° |
| 2026-04-14 12:00 | 33.07874 | -16.05291 | 21424 ft | 402 kts | 42° |
| 2026-04-14 12:01 | 33.09896 | -16.02963 | 21861 ft | 405 kts | 43° |
| 2026-04-14 12:01 | 33.11930 | -16.00619 | 22272 ft | 408 kts | 43° |
| 2026-04-14 12:01 | 33.13977 | -15.98258 | 22721 ft | 411 kts | 43° |
| 2026-04-14 12:01 | 33.16035 | -15.95875 | 23134 ft | 414 kts | 44° |
| 2026-04-14 12:02 | 33.18108 | -15.93470 | 23547 ft | 417 kts | 43° |
| 2026-04-14 12:02 | 33.20198 | -15.91045 | 23913 ft | 421 kts | 43° |
| 2026-04-14 12:02 | 33.22303 | -15.88606 | 24261 ft | 423 kts | 43° |
| 2026-04-14 12:02 | 33.24420 | -15.86156 | 24609 ft | 425 kts | 43° |
| 2026-04-14 12:03 | 33.26544 | -15.83691 | 24967 ft | 427 kts | 43° |
| 2026-04-14 12:03 | 33.28678 | -15.81206 | 25303 ft | 429 kts | 44° |
| 2026-04-14 12:03 | 33.30817 | -15.78713 | 25640 ft | 431 kts | 43° |
| 2026-04-14 12:03 | 33.32966 | -15.76207 | 25983 ft | 432 kts | 43° |
| 2026-04-14 12:04 | 33.35126 | -15.73687 | 26300 ft | 435 kts | 44° |
| 2026-04-14 12:04 | 33.37292 | -15.71158 | 26654 ft | 436 kts | 44° |
| 2026-04-14 12:04 | 33.39470 | -15.68615 | 26964 ft | 438 kts | 43° |
| 2026-04-14 12:04 | 33.41747 | -15.66193 | 27289 ft | 439 kts | 36° |
| 2026-04-14 12:05 | 33.44285 | -15.64245 | 27594 ft | 440 kts | 27° |
| 2026-04-14 12:05 | 33.46981 | -15.62511 | 27923 ft | 441 kts | 26° |
| 2026-04-14 12:05 | 33.49724 | -15.60737 | 28239 ft | 443 kts | 28° |
| 2026-04-14 12:05 | 33.52404 | -15.58994 | 28548 ft | 445 kts | 27° |
| 2026-04-14 12:06 | 33.55125 | -15.57217 | 28857 ft | 447 kts | 27° |
| 2026-04-14 12:06 | 33.57861 | -15.55424 | 29145 ft | 449 kts | 27° |
| 2026-04-14 12:06 | 33.60607 | -15.53628 | 29451 ft | 451 kts | 27° |
| 2026-04-14 12:06 | 33.63365 | -15.51823 | 29733 ft | 452 kts | 27° |
| 2026-04-14 12:07 | 33.66133 | -15.50012 | 30022 ft | 454 kts | 28° |
| 2026-04-14 12:07 | 33.68914 | -15.48191 | 30280 ft | 456 kts | 27° |
| 2026-04-14 12:07 | 33.71702 | -15.46367 | 30528 ft | 458 kts | 27° |
| 2026-04-14 12:07 | 33.74506 | -15.44534 | 30733 ft | 459 kts | 27° |
| 2026-04-14 12:08 | 33.77315 | -15.42693 | 30945 ft | 461 kts | 27° |
| 2026-04-14 12:08 | 33.80140 | -15.40838 | 31162 ft | 463 kts | 27° |
| 2026-04-14 12:08 | 33.82962 | -15.38981 | 31445 ft | 463 kts | 27° |
| 2026-04-14 12:08 | 33.85784 | -15.37124 | 31753 ft | 462 kts | 28° |
| 2026-04-14 12:09 | 33.88603 | -15.35269 | 32033 ft | 462 kts | 28° |
| 2026-04-14 12:09 | 33.91419 | -15.33414 | 32341 ft | 461 kts | 27° |
| 2026-04-14 12:09 | 33.94230 | -15.31560 | 32619 ft | 461 kts | 28° |
| 2026-04-14 12:09 | 33.97039 | -15.29708 | 32919 ft | 460 kts | 27° |
| 2026-04-14 12:10 | 33.99850 | -15.27857 | 33219 ft | 460 kts | 27° |
| 2026-04-14 12:10 | 34.02655 | -15.26007 | 33491 ft | 460 kts | 28° |
| 2026-04-14 12:10 | 34.05458 | -15.24154 | 33798 ft | 459 kts | 28° |
| 2026-04-14 12:10 | 34.08254 | -15.22303 | 34104 ft | 458 kts | 28° |
| 2026-04-14 12:11 | 34.11047 | -15.20453 | 34398 ft | 458 kts | 28° |
| 2026-04-14 12:11 | 34.13838 | -15.18604 | 34652 ft | 457 kts | 28° |
| 2026-04-14 12:11 | 34.16624 | -15.16762 | 34902 ft | 456 kts | 28° |
| 2026-04-14 12:11 | 34.19406 | -15.14918 | 35146 ft | 456 kts | 28° |
| 2026-04-14 12:12 | 34.22185 | -15.13072 | 35373 ft | 456 kts | 28° |
| 2026-04-14 12:12 | 34.24957 | -15.11226 | 35589 ft | 455 kts | 28° |
| 2026-04-14 12:12 | 34.27731 | -15.09377 | 35797 ft | 455 kts | 28° |
| 2026-04-14 12:12 | 34.30505 | -15.07532 | 36007 ft | 455 kts | 27° |
| 2026-04-14 12:13 | 34.33277 | -15.05687 | 36208 ft | 455 kts | 27° |
| 2026-04-14 12:13 | 34.36051 | -15.03839 | 36317 ft | 455 kts | 27° |
| 2026-04-14 12:13 | 34.41573 | -15.00157 | 36337 ft | 452 kts | 27° |
| 2026-04-14 12:14 | 34.47081 | -14.96481 | 36337 ft | 452 kts | 27° |
| 2026-04-14 12:14 | 34.52587 | -14.92802 | 36329 ft | 452 kts | 28° |
| 2026-04-14 12:15 | 34.58085 | -14.89108 | 36340 ft | 452 kts | 28° |
| 2026-04-14 12:15 | 34.63584 | -14.85415 | 36347 ft | 452 kts | 27° |
| 2026-04-14 12:16 | 34.69090 | -14.81718 | 36347 ft | 452 kts | 27° |
| 2026-04-14 12:16 | 34.74560 | -14.78040 | 36346 ft | 452 kts | 27° |
| 2026-04-14 12:17 | 34.79174 | -14.74934 | 36345 ft | 452 kts | 27° |
| 2026-04-14 12:17 | 34.85566 | -14.70605 | 36350 ft | 453 kts | 27° |
| 2026-04-14 12:18 | 34.91067 | -14.66871 | 36348 ft | 453 kts | 27° |
| 2026-04-14 12:18 | 34.95684 | -14.63748 | 36344 ft | 453 kts | 27° |
| 2026-04-14 12:19 | 35.01195 | -14.60016 | 36348 ft | 453 kts | 27° |
| 2026-04-14 12:19 | 35.06705 | -14.56271 | 36349 ft | 453 kts | 27° |
| 2026-04-14 12:20 | 35.12211 | -14.52522 | 36353 ft | 453 kts | 27° |
| 2026-04-14 12:20 | 35.17712 | -14.48767 | 36347 ft | 453 kts | 28° |
| 2026-04-14 12:21 | 35.23213 | -14.45011 | 36349 ft | 453 kts | 27° |
| 2026-04-14 12:21 | 35.28716 | -14.41256 | 36349 ft | 453 kts | 27° |
| 2026-04-14 12:22 | 35.34219 | -14.37495 | 36352 ft | 453 kts | 28° |
| 2026-04-14 12:22 | 35.39712 | -14.33721 | 36356 ft | 453 kts | 27° |
| 2026-04-14 12:23 | 35.45209 | -14.29943 | 36350 ft | 453 kts | 27° |
| 2026-04-14 12:23 | 35.50721 | -14.26151 | 36340 ft | 457 kts | 27° |
| 2026-04-14 12:24 | 35.56333 | -14.22295 | 36340 ft | 465 kts | 27° |
| 2026-04-14 12:24 | 35.61987 | -14.18392 | 36340 ft | 469 kts | 28° |
| 2026-04-14 12:25 | 35.67705 | -14.14424 | 36344 ft | 473 kts | 28° |
| 2026-04-14 12:25 | 35.73443 | -14.10441 | 36339 ft | 474 kts | 27° |
| 2026-04-14 12:26 | 35.79189 | -14.06465 | 36340 ft | 474 kts | 27° |
| 2026-04-14 12:26 | 35.84939 | -14.02474 | 36344 ft | 474 kts | 28° |
| 2026-04-14 12:27 | 35.90685 | -13.98472 | 36347 ft | 474 kts | 28° |
| 2026-04-14 12:27 | 35.96435 | -13.94463 | 36353 ft | 475 kts | 28° |
| 2026-04-14 12:28 | 36.02184 | -13.90438 | 36350 ft | 475 kts | 28° |
| 2026-04-14 12:28 | 36.07943 | -13.86417 | 36350 ft | 475 kts | 28° |
| 2026-04-14 12:29 | 36.13699 | -13.82393 | 36358 ft | 475 kts | 27° |
| 2026-04-14 12:29 | 36.19448 | -13.78365 | 36365 ft | 475 kts | 27° |
| 2026-04-14 12:30 | 36.25193 | -13.74323 | 36359 ft | 475 kts | 27° |
| 2026-04-14 12:30 | 36.30932 | -13.70266 | 36356 ft | 475 kts | 28° |
| 2026-04-14 12:31 | 36.36675 | -13.66211 | 36354 ft | 475 kts | 27° |
| 2026-04-14 12:31 | 36.42422 | -13.62158 | 36354 ft | 475 kts | 27° |
| 2026-04-14 12:32 | 36.48167 | -13.58099 | 36362 ft | 475 kts | 27° |
| 2026-04-14 12:32 | 36.53912 | -13.54028 | 36355 ft | 475 kts | 27° |
| 2026-04-14 12:33 | 36.59656 | -13.49938 | 36354 ft | 476 kts | 27° |
| 2026-04-14 12:33 | 36.65398 | -13.45849 | 36357 ft | 475 kts | 27° |
| 2026-04-14 12:34 | 36.71134 | -13.41756 | 36359 ft | 475 kts | 27° |
| 2026-04-14 12:34 | 36.76874 | -13.37669 | 36361 ft | 475 kts | 27° |
| 2026-04-14 12:35 | 36.82569 | -13.33600 | 36354 ft | 475 kts | 27° |
| 2026-04-14 12:35 | 36.88301 | -13.29488 | 36350 ft | 475 kts | 27° |
| 2026-04-14 12:36 | 36.94031 | -13.25367 | 36350 ft | 475 kts | 27° |
| 2026-04-14 12:36 | 36.99762 | -13.21245 | 36354 ft | 475 kts | 27° |
| 2026-04-14 12:37 | 37.05497 | -13.17118 | 36352 ft | 476 kts | 27° |
| 2026-04-14 12:37 | 37.11232 | -13.12970 | 36355 ft | 476 kts | 27° |
| 2026-04-14 12:38 | 37.19829 | -13.06763 | 36356 ft | 475 kts | 27° |
| 2026-04-14 12:39 | 37.25549 | -13.02618 | 36357 ft | 475 kts | 27° |
| 2026-04-14 12:39 | 37.31266 | -12.98462 | 36351 ft | 475 kts | 27° |
| 2026-04-14 12:40 | 37.36983 | -12.94295 | 36347 ft | 475 kts | 27° |
| 2026-04-14 12:40 | 37.42702 | -12.90133 | 36346 ft | 475 kts | 27° |
| 2026-04-14 12:41 | 37.48422 | -12.85967 | 36349 ft | 475 kts | 27° |
| 2026-04-14 12:41 | 37.54140 | -12.81780 | 36348 ft | 475 kts | 27° |
| 2026-04-14 12:42 | 37.59860 | -12.77582 | 36343 ft | 476 kts | 27° |
| 2026-04-14 12:42 | 37.65538 | -12.73408 | 36350 ft | 475 kts | 27° |
| 2026-04-14 12:43 | 37.71252 | -12.69208 | 36346 ft | 475 kts | 27° |
| 2026-04-14 12:43 | 37.76960 | -12.65011 | 36345 ft | 475 kts | 27° |
| 2026-04-14 12:44 | 37.82665 | -12.60813 | 36343 ft | 474 kts | 27° |
| 2026-04-14 12:44 | 37.88366 | -12.56597 | 36341 ft | 474 kts | 27° |
| 2026-04-14 12:45 | 37.96907 | -12.50251 | 36339 ft | 474 kts | 27° |
| 2026-04-14 12:45 | 38.02608 | -12.46030 | 36344 ft | 475 kts | 27° |
| 2026-04-14 12:46 | 38.08305 | -12.41795 | 36335 ft | 475 kts | 27° |
| 2026-04-14 12:46 | 38.13998 | -12.37543 | 36348 ft | 474 kts | 27° |
| 2026-04-14 12:47 | 38.19686 | -12.33306 | 36343 ft | 473 kts | 27° |
| 2026-04-14 12:47 | 38.25362 | -12.29060 | 36346 ft | 473 kts | 27° |
| 2026-04-14 12:48 | 38.31030 | -12.24809 | 36338 ft | 473 kts | 27° |
| 2026-04-14 12:48 | 38.36703 | -12.20555 | 36333 ft | 473 kts | 27° |
| 2026-04-14 12:49 | 38.42368 | -12.16290 | 36327 ft | 473 kts | 27° |
| 2026-04-14 12:49 | 38.48032 | -12.12011 | 36330 ft | 473 kts | 27° |
| 2026-04-14 12:50 | 38.56497 | -12.05615 | 36336 ft | 474 kts | 27° |
| 2026-04-14 12:51 | 38.62169 | -12.01323 | 36340 ft | 473 kts | 27° |
| 2026-04-14 12:51 | 38.67826 | -11.97034 | 36336 ft | 472 kts | 27° |
| 2026-04-14 12:52 | 38.73474 | -11.92748 | 36337 ft | 471 kts | 27° |
| 2026-04-14 12:52 | 38.79114 | -11.88458 | 36344 ft | 472 kts | 27° |
| 2026-04-14 12:53 | 38.84757 | -11.84145 | 36333 ft | 472 kts | 27° |
| 2026-04-14 12:53 | 38.90402 | -11.79833 | 36327 ft | 472 kts | 27° |
| 2026-04-14 12:54 | 38.96049 | -11.75516 | 36326 ft | 472 kts | 27° |
| 2026-04-14 12:54 | 39.01697 | -11.71193 | 36330 ft | 473 kts | 27° |
| 2026-04-14 12:55 | 39.07342 | -11.66855 | 36327 ft | 473 kts | 27° |
| 2026-04-14 12:55 | 39.12985 | -11.62501 | 36324 ft | 473 kts | 27° |
| 2026-04-14 12:56 | 39.18633 | -11.58146 | 36321 ft | 473 kts | 27° |
| 2026-04-14 12:56 | 39.24279 | -11.53785 | 36331 ft | 473 kts | 27° |
| 2026-04-14 12:57 | 39.29928 | -11.49405 | 36320 ft | 474 kts | 27° |
| 2026-04-14 12:57 | 39.35582 | -11.45020 | 36316 ft | 474 kts | 27° |
| 2026-04-14 12:58 | 39.41199 | -11.40653 | 36316 ft | 475 kts | 27° |
| 2026-04-14 12:58 | 39.46857 | -11.36246 | 36317 ft | 475 kts | 27° |
| 2026-04-14 12:59 | 39.52515 | -11.31833 | 36324 ft | 475 kts | 27° |
| 2026-04-14 12:59 | 39.58169 | -11.27409 | 36323 ft | 474 kts | 27° |
| 2026-04-14 13:00 | 39.63812 | -11.22996 | 36320 ft | 473 kts | 27° |
| 2026-04-14 13:00 | 39.69442 | -11.18574 | 36321 ft | 473 kts | 27° |
| 2026-04-14 13:01 | 39.75068 | -11.14151 | 36328 ft | 473 kts | 27° |
| 2026-04-14 13:01 | 39.80698 | -11.09724 | 36318 ft | 473 kts | 27° |
| 2026-04-14 13:02 | 39.86330 | -11.05281 | 36312 ft | 473 kts | 27° |
| 2026-04-14 13:02 | 39.91958 | -11.00826 | 36311 ft | 473 kts | 27° |
| 2026-04-14 13:03 | 39.97587 | -10.96366 | 36315 ft | 474 kts | 27° |
| 2026-04-14 13:03 | 40.02266 | -10.92656 | 36320 ft | 474 kts | 27° |
| 2026-04-14 13:04 | 40.07886 | -10.88183 | 36315 ft | 473 kts | 27° |
| 2026-04-14 13:04 | 40.13494 | -10.83706 | 36313 ft | 472 kts | 27° |
| 2026-04-14 13:05 | 40.19099 | -10.79236 | 36311 ft | 472 kts | 27° |
| 2026-04-14 13:05 | 40.24698 | -10.74758 | 36307 ft | 472 kts | 27° |
| 2026-04-14 13:06 | 40.30296 | -10.70276 | 36304 ft | 472 kts | 27° |
| 2026-04-14 13:06 | 40.35885 | -10.65780 | 36304 ft | 472 kts | 27° |
| 2026-04-14 13:07 | 40.41478 | -10.61277 | 36302 ft | 472 kts | 27° |
| 2026-04-14 13:07 | 40.47069 | -10.56770 | 36306 ft | 472 kts | 27° |
| 2026-04-14 13:08 | 40.52657 | -10.52259 | 36308 ft | 471 kts | 27° |
| 2026-04-14 13:08 | 40.58230 | -10.47750 | 36309 ft | 470 kts | 27° |
| 2026-04-14 13:09 | 40.63797 | -10.43242 | 36305 ft | 470 kts | 27° |
| 2026-04-14 13:09 | 40.69358 | -10.38721 | 36310 ft | 470 kts | 27° |
| 2026-04-14 13:10 | 40.74916 | -10.34187 | 36302 ft | 470 kts | 27° |
| 2026-04-14 13:10 | 40.80479 | -10.29650 | 36293 ft | 470 kts | 27° |
| 2026-04-14 13:11 | 40.86048 | -10.25106 | 36296 ft | 471 kts | 27° |
| 2026-04-14 13:11 | 40.91615 | -10.20547 | 36305 ft | 471 kts | 27° |
| 2026-04-14 13:12 | 40.97177 | -10.15978 | 36303 ft | 470 kts | 27° |
| 2026-04-14 13:12 | 41.02694 | -10.11439 | 36296 ft | 470 kts | 27° |
| 2026-04-14 13:13 | 41.08279 | -10.06836 | 36294 ft | 469 kts | 27° |
| 2026-04-14 13:13 | 41.13822 | -10.02255 | 36305 ft | 469 kts | 27° |
| 2026-04-14 13:14 | 41.19367 | -9.97667 | 36287 ft | 470 kts | 27° |
| 2026-04-14 13:14 | 41.24880 | -9.93105 | 36284 ft | 470 kts | 27° |
| 2026-04-14 13:15 | 41.30429 | -9.88499 | 36289 ft | 470 kts | 27° |
| 2026-04-14 13:15 | 41.35978 | -9.83871 | 36290 ft | 471 kts | 27° |
| 2026-04-14 13:16 | 41.41523 | -9.79241 | 36296 ft | 470 kts | 27° |
| 2026-04-14 13:16 | 41.47064 | -9.74613 | 36285 ft | 470 kts | 27° |
| 2026-04-14 13:17 | 41.52597 | -9.69982 | 36292 ft | 469 kts | 27° |
| 2026-04-14 13:17 | 41.58127 | -9.65344 | 36293 ft | 469 kts | 27° |
| 2026-04-14 13:18 | 41.63654 | -9.60695 | 36284 ft | 470 kts | 27° |
| 2026-04-14 13:18 | 41.69186 | -9.56035 | 36282 ft | 470 kts | 27° |
| 2026-04-14 13:19 | 41.74717 | -9.51361 | 36278 ft | 470 kts | 27° |
| 2026-04-14 13:19 | 41.80247 | -9.46673 | 36277 ft | 470 kts | 28° |
| 2026-04-14 13:20 | 41.85774 | -9.41981 | 36291 ft | 470 kts | 28° |
| 2026-04-14 13:20 | 41.91295 | -9.37292 | 36283 ft | 469 kts | 28° |
| 2026-04-14 13:21 | 41.96356 | -9.31660 | 36278 ft | 475 kts | 38° |
| 2026-04-14 13:21 | 42.01253 | -9.25704 | 36276 ft | 475 kts | 38° |
| 2026-04-14 13:22 | 42.06146 | -9.19739 | 36281 ft | 475 kts | 38° |
| 2026-04-14 13:22 | 42.11041 | -9.13768 | 36273 ft | 475 kts | 38° |
| 2026-04-14 13:23 | 42.15942 | -9.07794 | 36279 ft | 475 kts | 38° |
| 2026-04-14 13:23 | 42.20791 | -9.01847 | 36288 ft | 474 kts | 38° |
| 2026-04-14 13:24 | 42.25700 | -8.95823 | 36289 ft | 473 kts | 38° |
| 2026-04-14 13:24 | 42.33002 | -8.86850 | 36293 ft | 473 kts | 38° |
| 2026-04-14 13:25 | 42.37832 | -8.80892 | 36286 ft | 473 kts | 38° |
| 2026-04-14 13:26 | 42.47556 | -8.68863 | 36281 ft | 473 kts | 38° |
| 2026-04-14 13:26 | 42.52407 | -8.62842 | 36285 ft | 472 kts | 38° |
| 2026-04-14 13:27 | 42.57244 | -8.56818 | 36277 ft | 472 kts | 38° |
| 2026-04-14 13:27 | 42.62075 | -8.50792 | 36273 ft | 471 kts | 38° |
| 2026-04-14 13:28 | 42.66896 | -8.44775 | 36264 ft | 471 kts | 38° |
| 2026-04-14 13:28 | 42.71711 | -8.38739 | 36284 ft | 471 kts | 38° |
| 2026-04-14 13:29 | 42.76525 | -8.32691 | 36281 ft | 471 kts | 38° |
| 2026-04-14 13:29 | 42.81335 | -8.26648 | 36271 ft | 470 kts | 38° |
| 2026-04-14 13:30 | 42.86125 | -8.20601 | 36262 ft | 469 kts | 38° |
| 2026-04-14 13:30 | 42.90908 | -8.14554 | 36266 ft | 469 kts | 38° |
| 2026-04-14 13:31 | 42.95687 | -8.08501 | 36275 ft | 469 kts | 38° |
| 2026-04-14 13:31 | 43.00463 | -8.02435 | 36263 ft | 469 kts | 38° |
| 2026-04-14 13:32 | 43.05240 | -7.96362 | 36247 ft | 469 kts | 38° |
| 2026-04-14 13:32 | 43.10015 | -7.90278 | 36243 ft | 469 kts | 38° |
| 2026-04-14 13:33 | 43.14787 | -7.84182 | 36244 ft | 469 kts | 38° |
| 2026-04-14 13:33 | 43.19559 | -7.78077 | 36248 ft | 470 kts | 38° |
| 2026-04-14 13:34 | 43.26713 | -7.68876 | 36231 ft | 470 kts | 38° |
| 2026-04-14 13:35 | 43.31488 | -7.62732 | 36229 ft | 471 kts | 38° |
| 2026-04-14 13:35 | 43.36231 | -7.56623 | 36231 ft | 470 kts | 38° |
| 2026-04-14 13:36 | 43.40995 | -7.50464 | 36237 ft | 470 kts | 38° |
| 2026-04-14 13:36 | 43.45750 | -7.44288 | 36230 ft | 470 kts | 38° |
| 2026-04-14 13:37 | 43.50502 | -7.38104 | 36228 ft | 470 kts | 38° |
| 2026-04-14 13:37 | 43.55254 | -7.31917 | 36219 ft | 470 kts | 38° |
| 2026-04-14 13:38 | 43.59995 | -7.25730 | 36219 ft | 470 kts | 38° |
| 2026-04-14 13:38 | 43.64741 | -7.19521 | 36230 ft | 470 kts | 38° |
| 2026-04-14 13:39 | 43.69482 | -7.13301 | 36222 ft | 470 kts | 38° |
| 2026-04-14 13:39 | 43.74213 | -7.07076 | 36218 ft | 469 kts | 38° |
| 2026-04-14 13:40 | 43.78936 | -7.00844 | 36215 ft | 469 kts | 38° |
| 2026-04-14 13:40 | 43.83663 | -6.94607 | 36216 ft | 469 kts | 38° |
| 2026-04-14 13:41 | 43.88390 | -6.88364 | 36213 ft | 470 kts | 38° |
| 2026-04-14 13:41 | 43.93115 | -6.82103 | 36219 ft | 470 kts | 38° |
| 2026-04-14 13:42 | 43.97791 | -6.75875 | 36221 ft | 468 kts | 38° |
| 2026-04-14 13:42 | 44.02489 | -6.69616 | 36219 ft | 468 kts | 38° |
| 2026-04-14 13:43 | 44.07177 | -6.63351 | 36219 ft | 468 kts | 38° |
| 2026-04-14 13:43 | 44.11864 | -6.57067 | 36209 ft | 468 kts | 38° |
| 2026-04-14 13:44 | 44.16553 | -6.50791 | 36208 ft | 468 kts | 38° |
| 2026-04-14 13:44 | 44.21240 | -6.44492 | 36209 ft | 468 kts | 38° |
| 2026-04-14 13:45 | 44.25903 | -6.38184 | 36222 ft | 467 kts | 38° |
| 2026-04-14 13:45 | 44.30559 | -6.31882 | 36211 ft | 466 kts | 38° |
| 2026-04-14 13:46 | 44.35209 | -6.25592 | 36201 ft | 465 kts | 38° |
| 2026-04-14 13:46 | 44.39853 | -6.19295 | 36199 ft | 465 kts | 38° |
| 2026-04-14 13:47 | 44.44491 | -6.12985 | 36198 ft | 465 kts | 38° |
| 2026-04-14 13:47 | 44.49128 | -6.06664 | 36211 ft | 465 kts | 38° |
| 2026-04-14 13:48 | 44.53761 | -6.00332 | 36209 ft | 464 kts | 38° |
| 2026-04-14 13:48 | 44.58373 | -5.94000 | 36198 ft | 463 kts | 38° |
| 2026-04-14 13:49 | 44.62965 | -5.87684 | 36190 ft | 462 kts | 38° |
| 2026-04-14 13:49 | 44.66778 | -5.82430 | 36188 ft | 462 kts | 38° |
| 2026-04-14 13:50 | 44.71380 | -5.76131 | 36189 ft | 462 kts | 38° |
| 2026-04-14 13:50 | 44.75988 | -5.69836 | 36202 ft | 462 kts | 38° |
| 2026-04-14 13:51 | 44.80581 | -5.63527 | 36204 ft | 460 kts | 38° |
| 2026-04-14 13:51 | 44.85159 | -5.57235 | 36205 ft | 459 kts | 38° |
| 2026-04-14 13:52 | 44.89728 | -5.50946 | 36199 ft | 459 kts | 38° |
| 2026-04-14 13:52 | 44.94291 | -5.44633 | 36193 ft | 459 kts | 38° |
| 2026-04-14 13:53 | 44.98847 | -5.38306 | 36185 ft | 460 kts | 38° |
| 2026-04-14 13:53 | 45.03406 | -5.31967 | 36197 ft | 459 kts | 38° |
| 2026-04-14 13:54 | 45.07951 | -5.25639 | 36197 ft | 458 kts | 38° |
| 2026-04-14 13:54 | 45.12486 | -5.19317 | 36183 ft | 458 kts | 38° |
| 2026-04-14 13:55 | 45.17015 | -5.12983 | 36182 ft | 458 kts | 38° |
| 2026-04-14 13:55 | 45.21535 | -5.06627 | 36177 ft | 458 kts | 38° |
| 2026-04-14 13:56 | 45.26054 | -5.00263 | 36190 ft | 457 kts | 38° |
| 2026-04-14 13:56 | 45.30568 | -4.93909 | 36180 ft | 457 kts | 38° |
| 2026-04-14 13:57 | 45.35044 | -4.87604 | 36181 ft | 456 kts | 38° |
| 2026-04-14 13:57 | 45.39570 | -4.81202 | 36169 ft | 456 kts | 38° |
| 2026-04-14 13:58 | 45.44020 | -4.74865 | 36169 ft | 456 kts | 38° |
| 2026-04-14 13:58 | 45.48501 | -4.68473 | 36172 ft | 456 kts | 38° |
| 2026-04-14 13:59 | 45.52979 | -4.62079 | 36177 ft | 455 kts | 38° |
| 2026-04-14 13:59 | 45.57453 | -4.55702 | 36177 ft | 454 kts | 38° |
| 2026-04-14 14:00 | 45.61914 | -4.49323 | 36169 ft | 454 kts | 38° |
| 2026-04-14 14:00 | 45.66369 | -4.42920 | 36165 ft | 454 kts | 38° |
| 2026-04-14 14:01 | 45.70817 | -4.36517 | 36162 ft | 454 kts | 38° |
| 2026-04-14 14:01 | 45.75264 | -4.30096 | 36158 ft | 455 kts | 38° |
| 2026-04-14 14:02 | 45.79719 | -4.23649 | 36158 ft | 455 kts | 38° |
| 2026-04-14 14:02 | 45.84165 | -4.17208 | 36148 ft | 454 kts | 38° |
| 2026-04-14 14:03 | 45.88609 | -4.10760 | 36144 ft | 455 kts | 38° |
| 2026-04-14 14:03 | 45.93054 | -4.04283 | 36144 ft | 456 kts | 39° |
| 2026-04-14 14:04 | 45.97497 | -3.97776 | 36130 ft | 457 kts | 39° |
| 2026-04-14 14:04 | 46.01943 | -3.91259 | 36152 ft | 456 kts | 38° |
| 2026-04-14 14:05 | 46.06386 | -3.84749 | 36153 ft | 455 kts | 38° |
| 2026-04-14 14:05 | 46.10816 | -3.78246 | 36150 ft | 455 kts | 38° |
| 2026-04-14 14:06 | 46.15243 | -3.71720 | 36147 ft | 455 kts | 38° |
| 2026-04-14 14:06 | 46.19669 | -3.65180 | 36140 ft | 455 kts | 39° |
| 2026-04-14 14:07 | 46.24087 | -3.58619 | 36150 ft | 456 kts | 39° |
| 2026-04-14 14:07 | 46.28494 | -3.52049 | 36151 ft | 455 kts | 39° |
| 2026-04-14 14:08 | 46.32894 | -3.45496 | 36154 ft | 454 kts | 39° |
| 2026-04-14 14:08 | 46.37289 | -3.38940 | 36148 ft | 454 kts | 39° |
| 2026-04-14 14:09 | 46.41682 | -3.32368 | 36145 ft | 454 kts | 39° |
| 2026-04-14 14:09 | 46.46070 | -3.25779 | 36138 ft | 454 kts | 39° |
| 2026-04-14 14:10 | 46.50455 | -3.19178 | 36163 ft | 454 kts | 39° |
| 2026-04-14 14:10 | 46.54830 | -3.12584 | 36152 ft | 453 kts | 39° |
| 2026-04-14 14:11 | 46.58646 | -3.05175 | 36153 ft | 466 kts | 52° |
| 2026-04-14 14:11 | 46.61902 | -2.97023 | 36149 ft | 466 kts | 53° |
| 2026-04-14 14:12 | 46.65161 | -2.88864 | 36146 ft | 466 kts | 52° |
| 2026-04-14 14:12 | 46.68427 | -2.80706 | 36162 ft | 466 kts | 52° |
| 2026-04-14 14:13 | 46.71680 | -2.72553 | 36169 ft | 465 kts | 52° |
| 2026-04-14 14:13 | 46.74919 | -2.64412 | 36164 ft | 464 kts | 52° |
| 2026-04-14 14:14 | 46.78144 | -2.56277 | 36162 ft | 463 kts | 52° |
| 2026-04-14 14:14 | 46.81360 | -2.48134 | 36161 ft | 463 kts | 52° |
| 2026-04-14 14:15 | 46.84566 | -2.39986 | 36184 ft | 462 kts | 52° |
| 2026-04-14 14:15 | 46.87787 | -2.31890 | 36182 ft | 459 kts | 51° |
| 2026-04-14 14:16 | 46.91140 | -2.23983 | 36186 ft | 456 kts | 50° |
| 2026-04-14 14:16 | 46.94523 | -2.16128 | 36178 ft | 456 kts | 50° |
| 2026-04-14 14:17 | 46.99524 | -2.04256 | 36190 ft | 457 kts | 51° |
| 2026-04-14 14:17 | 47.02762 | -1.96315 | 36190 ft | 457 kts | 52° |
| 2026-04-14 14:18 | 47.05891 | -1.88123 | 36182 ft | 457 kts | 53° |
| 2026-04-14 14:18 | 47.08960 | -1.79959 | 36176 ft | 457 kts | 53° |
| 2026-04-14 14:19 | 47.12034 | -1.71884 | 36188 ft | 456 kts | 52° |
| 2026-04-14 14:19 | 47.15140 | -1.63774 | 36202 ft | 456 kts | 52° |
| 2026-04-14 14:20 | 47.18355 | -1.55798 | 36202 ft | 451 kts | 49° |
| 2026-04-14 14:20 | 47.21845 | -1.48183 | 36192 ft | 448 kts | 47° |
| 2026-04-14 14:21 | 47.25374 | -1.40627 | 36183 ft | 448 kts | 48° |
| 2026-04-14 14:21 | 47.28830 | -1.32985 | 36177 ft | 449 kts | 49° |
| 2026-04-14 14:22 | 47.32239 | -1.25274 | 36176 ft | 449 kts | 49° |
| 2026-04-14 14:22 | 47.35642 | -1.17552 | 36191 ft | 448 kts | 49° |
| 2026-04-14 14:23 | 47.39047 | -1.09857 | 36191 ft | 448 kts | 49° |
| 2026-04-14 14:23 | 47.42456 | -1.02174 | 36183 ft | 448 kts | 49° |
| 2026-04-14 14:24 | 47.45859 | -0.94463 | 36183 ft | 448 kts | 49° |
| 2026-04-14 14:24 | 47.49245 | -0.86722 | 36176 ft | 448 kts | 49° |
| 2026-04-14 14:25 | 47.52629 | -0.78978 | 36209 ft | 448 kts | 49° |
| 2026-04-14 14:25 | 47.56006 | -0.71241 | 36204 ft | 447 kts | 49° |
| 2026-04-14 14:26 | 47.59373 | -0.63523 | 36211 ft | 446 kts | 49° |
| 2026-04-14 14:26 | 47.62735 | -0.55788 | 36205 ft | 446 kts | 49° |
| 2026-04-14 14:27 | 47.66089 | -0.48033 | 36199 ft | 447 kts | 49° |
| 2026-04-14 14:27 | 47.69437 | -0.40270 | 36197 ft | 447 kts | 49° |
| 2026-04-14 14:28 | 47.72789 | -0.32504 | 36195 ft | 447 kts | 49° |
| 2026-04-14 14:28 | 47.76130 | -0.24715 | 36191 ft | 447 kts | 49° |
| 2026-04-14 14:29 | 47.79464 | -0.16913 | 36189 ft | 447 kts | 49° |
| 2026-04-14 14:29 | 47.82796 | -0.09107 | 36169 ft | 448 kts | 49° |
| 2026-04-14 14:30 | 47.86130 | -0.01266 | 36178 ft | 448 kts | 50° |
| 2026-04-14 14:30 | 47.89457 | 0.06573 | 36219 ft | 447 kts | 50° |
| 2026-04-14 14:31 | 47.92777 | 0.14403 | 36217 ft | 446 kts | 50° |
| 2026-04-14 14:31 | 47.96079 | 0.22232 | 36205 ft | 446 kts | 50° |
| 2026-04-14 14:32 | 47.99372 | 0.30070 | 36211 ft | 446 kts | 50° |
| 2026-04-14 14:32 | 48.02106 | 0.36592 | 36204 ft | 446 kts | 50° |
| 2026-04-14 14:33 | 48.05392 | 0.44447 | 36223 ft | 446 kts | 50° |
| 2026-04-14 14:33 | 48.08669 | 0.52315 | 36214 ft | 445 kts | 50° |
| 2026-04-14 14:34 | 48.13776 | 0.63814 | 36204 ft | 438 kts | 44° |
| 2026-04-14 14:35 | 48.17481 | 0.71046 | 36198 ft | 438 kts | 44° |
| 2026-04-14 14:35 | 48.21176 | 0.78295 | 36192 ft | 438 kts | 44° |
| 2026-04-14 14:36 | 48.24862 | 0.85570 | 36188 ft | 438 kts | 45° |
| 2026-04-14 14:36 | 48.28542 | 0.92862 | 36206 ft | 438 kts | 45° |
| 2026-04-14 14:37 | 48.32212 | 1.00161 | 36203 ft | 437 kts | 45° |
| 2026-04-14 14:37 | 48.35851 | 1.07403 | 36198 ft | 437 kts | 45° |
| 2026-04-14 14:38 | 48.39513 | 1.14699 | 36191 ft | 437 kts | 45° |
| 2026-04-14 14:38 | 48.43170 | 1.22007 | 36200 ft | 437 kts | 45° |
| 2026-04-14 14:39 | 48.46832 | 1.29332 | 36192 ft | 438 kts | 45° |
| 2026-04-14 14:39 | 48.50481 | 1.36665 | 36209 ft | 436 kts | 45° |
| 2026-04-14 14:40 | 48.54110 | 1.43985 | 36206 ft | 435 kts | 45° |
| 2026-04-14 14:40 | 48.57731 | 1.51289 | 36201 ft | 434 kts | 45° |
| 2026-04-14 14:41 | 48.61344 | 1.58604 | 36204 ft | 434 kts | 45° |
| 2026-04-14 14:41 | 48.64700 | 1.66246 | 36205 ft | 446 kts | 56° |
| 2026-04-14 14:42 | 48.66943 | 1.75127 | 36232 ft | 453 kts | 61° |
| 2026-04-14 14:42 | 48.69095 | 1.84089 | 36220 ft | 453 kts | 61° |
| 2026-04-14 14:43 | 48.71244 | 1.93034 | 36217 ft | 452 kts | 61° |
| 2026-04-14 14:43 | 48.73393 | 2.01976 | 36210 ft | 452 kts | 61° |
| 2026-04-14 14:44 | 48.75514 | 2.10860 | 36209 ft | 452 kts | 62° |
| 2026-04-14 14:44 | 48.77336 | 2.20041 | 36226 ft | 457 kts | 66° |
| 2026-04-14 14:45 | 48.78911 | 2.29402 | 36216 ft | 458 kts | 66° |
| 2026-04-14 14:45 | 48.80495 | 2.38736 | 36211 ft | 457 kts | 66° |
| 2026-04-14 14:46 | 48.82150 | 2.48030 | 36207 ft | 456 kts | 65° |
| 2026-04-14 14:46 | 48.83819 | 2.57308 | 36204 ft | 456 kts | 65° |
| 2026-04-14 14:47 | 48.85473 | 2.66594 | 36225 ft | 456 kts | 66° |
| 2026-04-14 14:47 | 48.87105 | 2.75908 | 36213 ft | 456 kts | 66° |
| 2026-04-14 14:48 | 48.88728 | 2.85228 | 36206 ft | 456 kts | 66° |
| 2026-04-14 14:48 | 48.90345 | 2.94538 | 36201 ft | 456 kts | 67° |
| 2026-04-14 14:49 | 48.91949 | 3.03863 | 36200 ft | 456 kts | 67° |
| 2026-04-14 14:49 | 48.93557 | 3.13190 | 36217 ft | 456 kts | 68° |
| 2026-04-14 14:50 | 48.95159 | 3.22539 | 36210 ft | 457 kts | 68° |
| 2026-04-14 14:50 | 48.96747 | 3.31898 | 36210 ft | 457 kts | 68° |
| 2026-04-14 14:51 | 48.98327 | 3.41276 | 36206 ft | 457 kts | 68° |
| 2026-04-14 14:51 | 48.99899 | 3.50655 | 36204 ft | 457 kts | 68° |
| 2026-04-14 14:52 | 49.01472 | 3.60042 | 36206 ft | 458 kts | 69° |
| 2026-04-14 14:52 | 49.03037 | 3.69446 | 36202 ft | 458 kts | 69° |
| 2026-04-14 14:53 | 49.04587 | 3.78805 | 36196 ft | 459 kts | 69° |
| 2026-04-14 14:53 | 49.06143 | 3.88246 | 36195 ft | 459 kts | 69° |
| 2026-04-14 14:54 | 49.07686 | 3.97698 | 36192 ft | 460 kts | 69° |
| 2026-04-14 14:54 | 49.09226 | 4.07161 | 36189 ft | 460 kts | 69° |
| 2026-04-14 14:55 | 49.10757 | 4.16639 | 36188 ft | 460 kts | 69° |
| 2026-04-14 14:55 | 49.12279 | 4.26124 | 36190 ft | 460 kts | 69° |
| 2026-04-14 14:56 | 49.14950 | 4.40087 | 36194 ft | 451 kts | 60° |
| 2026-04-14 14:56 | 49.17369 | 4.48937 | 36202 ft | 452 kts | 61° |
| 2026-04-14 14:57 | 49.19776 | 4.57820 | 36196 ft | 453 kts | 61° |
| 2026-04-14 14:57 | 49.22179 | 4.66731 | 36198 ft | 453 kts | 61° |
| 2026-04-14 14:58 | 49.24578 | 4.75665 | 36192 ft | 454 kts | 62° |
| 2026-04-14 14:58 | 49.26972 | 4.84621 | 36187 ft | 455 kts | 62° |
| 2026-04-14 14:59 | 49.29364 | 4.93602 | 36208 ft | 455 kts | 62° |
| 2026-04-14 14:59 | 49.31753 | 5.02591 | 36201 ft | 456 kts | 62° |
| 2026-04-14 15:00 | 49.34135 | 5.11595 | 36198 ft | 456 kts | 62° |
| 2026-04-14 15:00 | 49.36509 | 5.20610 | 36196 ft | 456 kts | 62° |
| 2026-04-14 15:01 | 49.38883 | 5.29630 | 36197 ft | 456 kts | 63° |
| 2026-04-14 15:01 | 49.41244 | 5.38672 | 36214 ft | 456 kts | 63° |
| 2026-04-14 15:02 | 49.43600 | 5.47723 | 36202 ft | 457 kts | 63° |
| 2026-04-14 15:02 | 49.45949 | 5.56794 | 36198 ft | 457 kts | 63° |
| 2026-04-14 15:03 | 49.48292 | 5.65877 | 36197 ft | 457 kts | 63° |
| 2026-04-14 15:03 | 49.50925 | 5.74701 | 36194 ft | 449 kts | 52° |
| 2026-04-14 15:04 | 49.55062 | 5.81643 | 36189 ft | 436 kts | 33° |
| 2026-04-14 15:04 | 49.59232 | 5.88364 | 35752 ft | 449 kts | 59° |
| 2026-04-14 15:05 | 49.60513 | 5.92825 | 35329 ft | 448 kts | 61° |
| 2026-04-14 15:05 | 49.61747 | 5.97164 | 34695 ft | 447 kts | 60° |
| 2026-04-14 15:05 | 49.63014 | 6.01510 | 34176 ft | 442 kts | 59° |
| 2026-04-14 15:05 | 49.64287 | 6.05793 | 33616 ft | 437 kts | 59° |
| 2026-04-14 15:06 | 49.65558 | 6.10021 | 33041 ft | 432 kts | 59° |
| 2026-04-14 15:06 | 49.66816 | 6.14194 | 32354 ft | 426 kts | 59° |
| 2026-04-14 15:06 | 49.68053 | 6.18323 | 31635 ft | 421 kts | 59° |
| 2026-04-14 15:06 | 49.69268 | 6.22414 | 30950 ft | 416 kts | 60° |
| 2026-04-14 15:07 | 49.70460 | 6.26453 | 30273 ft | 411 kts | 60° |
| 2026-04-14 15:07 | 49.71639 | 6.30456 | 29486 ft | 407 kts | 60° |
| 2026-04-14 15:07 | 49.72692 | 6.34496 | 28720 ft | 406 kts | 70° |
| 2026-04-14 15:07 | 49.73388 | 6.38704 | 27730 ft | 402 kts | 72° |
| 2026-04-14 15:08 | 49.74051 | 6.42880 | 26766 ft | 398 kts | 72° |
| 2026-04-14 15:08 | 49.74695 | 6.47011 | 25873 ft | 393 kts | 73° |
| 2026-04-14 15:08 | 49.75325 | 6.51089 | 25003 ft | 388 kts | 73° |
| 2026-04-14 15:08 | 49.75949 | 6.55125 | 24155 ft | 383 kts | 73° |
| 2026-04-14 15:09 | 49.76564 | 6.59094 | 23476 ft | 374 kts | 73° |
| 2026-04-14 15:09 | 49.77162 | 6.62949 | 22944 ft | 365 kts | 73° |
| 2026-04-14 15:09 | 49.77753 | 6.66743 | 22509 ft | 361 kts | 73° |
| 2026-04-14 15:09 | 49.78339 | 6.70499 | 22082 ft | 358 kts | 73° |
| 2026-04-14 15:10 | 49.78918 | 6.74226 | 21672 ft | 355 kts | 74° |
| 2026-04-14 15:10 | 49.79493 | 6.77925 | 21249 ft | 352 kts | 74° |
| 2026-04-14 15:10 | 49.80060 | 6.81595 | 20844 ft | 349 kts | 74° |
| 2026-04-14 15:10 | 49.80621 | 6.85235 | 20440 ft | 346 kts | 75° |
| 2026-04-14 15:11 | 49.81177 | 6.88851 | 20035 ft | 344 kts | 75° |
| 2026-04-14 15:11 | 49.81723 | 6.92424 | 19790 ft | 339 kts | 75° |
| 2026-04-14 15:11 | 49.82260 | 6.95960 | 19545 ft | 336 kts | 75° |
| 2026-04-14 15:11 | 49.82794 | 6.99479 | 19304 ft | 335 kts | 75° |
| 2026-04-14 15:12 | 49.83327 | 7.02978 | 19063 ft | 333 kts | 75° |
| 2026-04-14 15:12 | 49.83860 | 7.06466 | 18827 ft | 332 kts | 75° |
| 2026-04-14 15:12 | 49.84400 | 7.09938 | 18597 ft | 330 kts | 72° |
| 2026-04-14 15:12 | 49.85282 | 7.13193 | 18342 ft | 327 kts | 62° |
| 2026-04-14 15:13 | 49.86277 | 7.16351 | 18074 ft | 326 kts | 62° |
| 2026-04-14 15:13 | 49.87266 | 7.19501 | 17802 ft | 324 kts | 62° |
| 2026-04-14 15:13 | 49.88246 | 7.22634 | 17528 ft | 322 kts | 62° |
| 2026-04-14 15:13 | 49.89221 | 7.25757 | 17212 ft | 321 kts | 62° |
| 2026-04-14 15:14 | 49.90192 | 7.28863 | 16903 ft | 319 kts | 62° |
| 2026-04-14 15:14 | 49.91157 | 7.31956 | 16655 ft | 318 kts | 63° |
| 2026-04-14 15:14 | 49.92120 | 7.35040 | 16387 ft | 317 kts | 62° |
| 2026-04-14 15:14 | 49.93076 | 7.38110 | 16158 ft | 315 kts | 63° |
| 2026-04-14 15:15 | 49.94030 | 7.41168 | 15906 ft | 314 kts | 63° |
| 2026-04-14 15:15 | 49.94979 | 7.44206 | 15655 ft | 312 kts | 62° |
| 2026-04-14 15:15 | 49.95908 | 7.47192 | 15405 ft | 310 kts | 63° |
| 2026-04-14 15:15 | 49.96842 | 7.50203 | 15133 ft | 308 kts | 64° |
| 2026-04-14 15:16 | 49.97768 | 7.53198 | 14896 ft | 306 kts | 63° |
| 2026-04-14 15:16 | 49.98688 | 7.56177 | 14658 ft | 306 kts | 63° |
| 2026-04-14 15:16 | 49.99607 | 7.59151 | 14414 ft | 304 kts | 63° |
| 2026-04-14 15:16 | 50.00517 | 7.62103 | 14174 ft | 302 kts | 63° |
| 2026-04-14 15:17 | 50.01424 | 7.65044 | 13951 ft | 301 kts | 63° |
| 2026-04-14 15:17 | 50.02329 | 7.67976 | 13728 ft | 300 kts | 62° |
| 2026-04-14 15:17 | 50.03229 | 7.70894 | 13524 ft | 299 kts | 62° |
| 2026-04-14 15:17 | 50.04128 | 7.73814 | 13301 ft | 299 kts | 63° |
| 2026-04-14 15:18 | 50.05022 | 7.76740 | 13103 ft | 299 kts | 63° |
| 2026-04-14 15:18 | 50.05913 | 7.79663 | 12890 ft | 302 kts | 64° |
| 2026-04-14 15:18 | 50.06819 | 7.82630 | 12680 ft | 304 kts | 64° |
| 2026-04-14 15:18 | 50.07729 | 7.85609 | 12471 ft | 305 kts | 64° |
| 2026-04-14 15:19 | 50.08468 | 7.88699 | 12258 ft | 304 kts | 72° |
| 2026-04-14 15:19 | 50.09067 | 7.91849 | 12020 ft | 304 kts | 73° |
| 2026-04-14 15:19 | 50.09655 | 7.95002 | 11757 ft | 303 kts | 73° |
| 2026-04-14 15:19 | 50.10242 | 7.98142 | 11546 ft | 301 kts | 73° |
| 2026-04-14 15:20 | 50.10830 | 8.01271 | 11353 ft | 301 kts | 73° |
| 2026-04-14 15:20 | 50.11420 | 8.04393 | 11142 ft | 301 kts | 73° |
| 2026-04-14 15:20 | 50.11826 | 8.06453 | 11016 ft | 300 kts | 70° |
| 2026-04-14 15:20 | 50.12696 | 8.09388 | 10822 ft | 298 kts | 64° |
| 2026-04-14 15:21 | 50.13609 | 8.12297 | 10626 ft | 298 kts | 64° |
| 2026-04-14 15:21 | 50.14522 | 8.15196 | 10449 ft | 295 kts | 64° |
| 2026-04-14 15:21 | 50.15417 | 8.18022 | 10283 ft | 287 kts | 64° |
| 2026-04-14 15:21 | 50.16290 | 8.20774 | 10093 ft | 280 kts | 64° |
| 2026-04-14 15:22 | 50.17140 | 8.23468 | 9871 ft | 274 kts | 64° |
| 2026-04-14 15:22 | 50.17969 | 8.26104 | 9658 ft | 268 kts | 64° |
| 2026-04-14 15:22 | 50.18623 | 8.28785 | 9413 ft | 262 kts | 71° |
| 2026-04-14 15:22 | 50.19186 | 8.31468 | 9154 ft | 259 kts | 72° |
| 2026-04-14 15:23 | 50.19728 | 8.34123 | 8885 ft | 255 kts | 71° |
| 2026-04-14 15:23 | 50.20259 | 8.36752 | 8572 ft | 253 kts | 71° |
| 2026-04-14 15:23 | 50.20745 | 8.39375 | 8260 ft | 251 kts | 80° |
| 2026-04-14 15:23 | 50.20666 | 8.42068 | 7943 ft | 250 kts | 105° |
| 2026-04-14 15:24 | 50.19847 | 8.44440 | 7595 ft | 251 kts | 131° |
| 2026-04-14 15:24 | 50.18432 | 8.46015 | 7240 ft | 252 kts | 158° |
| 2026-04-14 15:24 | 50.16717 | 8.46457 | 6891 ft | 252 kts | 184° |
| 2026-04-14 15:24 | 50.15007 | 8.45865 | 6549 ft | 252 kts | 196° |
| 2026-04-14 15:25 | 50.13319 | 8.45138 | 6178 ft | 252 kts | 195° |
| 2026-04-14 15:25 | 50.11675 | 8.44218 | 5804 ft | 251 kts | 212° |
| 2026-04-14 15:25 | 50.10412 | 8.42421 | 5532 ft | 245 kts | 238° |
| 2026-04-14 15:25 | 50.09716 | 8.40039 | 5288 ft | 242 kts | 253° |
| 2026-04-14 15:26 | 50.09154 | 8.37572 | 5069 ft | 240 kts | 252° |
| 2026-04-14 15:26 | 50.08590 | 8.35119 | 5004 ft | 241 kts | 252° |
| 2026-04-14 15:26 | 50.08021 | 8.32665 | 5009 ft | 241 kts | 252° |
| 2026-04-14 15:26 | 50.07452 | 8.30215 | 5011 ft | 241 kts | 252° |
| 2026-04-14 15:27 | 50.06884 | 8.27768 | 5010 ft | 240 kts | 252° |
| 2026-04-14 15:27 | 50.06314 | 8.25317 | 5014 ft | 241 kts | 252° |
| 2026-04-14 15:27 | 50.05742 | 8.22876 | 5009 ft | 240 kts | 252° |
| 2026-04-14 15:27 | 50.05169 | 8.20440 | 5010 ft | 240 kts | 252° |
| 2026-04-14 15:28 | 50.04597 | 8.18005 | 5004 ft | 240 kts | 252° |
| 2026-04-14 15:28 | 50.04026 | 8.15569 | 5016 ft | 240 kts | 252° |
| 2026-04-14 15:28 | 50.03453 | 8.13129 | 5018 ft | 240 kts | 252° |
| 2026-04-14 15:28 | 50.02882 | 8.10693 | 5014 ft | 240 kts | 251° |
| 2026-04-14 15:29 | 50.02310 | 8.08267 | 5008 ft | 239 kts | 252° |
| 2026-04-14 15:29 | 50.01738 | 8.05839 | 5017 ft | 239 kts | 252° |
| 2026-04-14 15:29 | 50.01162 | 8.03415 | 5014 ft | 239 kts | 249° |
| 2026-04-14 15:29 | 50.00216 | 8.01349 | 5007 ft | 232 kts | 218° |
| 2026-04-14 15:30 | 49.98773 | 8.00408 | 5006 ft | 225 kts | 189° |
| 2026-04-14 15:30 | 49.97224 | 8.00132 | 5011 ft | 224 kts | 181° |
| 2026-04-14 15:30 | 49.95739 | 8.00663 | 5012 ft | 220 kts | 150° |
| 2026-04-14 15:30 | 49.94543 | 8.02089 | 5009 ft | 217 kts | 128° |
| 2026-04-14 15:31 | 49.93765 | 8.04032 | 5012 ft | 206 kts | 108° |
| 2026-04-14 15:31 | 49.93484 | 8.06097 | 5034 ft | 187 kts | 88° |
| 2026-04-14 15:31 | 49.93628 | 8.08034 | 5016 ft | 178 kts | 71° |
| 2026-04-14 15:31 | 49.94050 | 8.09826 | 5016 ft | 177 kts | 66° |
| 2026-04-14 15:32 | 49.94484 | 8.11603 | 5010 ft | 176 kts | 66° |
| 2026-04-14 15:32 | 49.94916 | 8.13374 | 5009 ft | 176 kts | 67° |
| 2026-04-14 15:32 | 49.95349 | 8.15150 | 5010 ft | 176 kts | 67° |
| 2026-04-14 15:32 | 49.95783 | 8.16931 | 4972 ft | 177 kts | 66° |
| 2026-04-14 15:33 | 49.96216 | 8.18711 | 4775 ft | 175 kts | 66° |
| 2026-04-14 15:33 | 49.96646 | 8.20476 | 4542 ft | 174 kts | 67° |
| 2026-04-14 15:33 | 49.97073 | 8.22235 | 4299 ft | 173 kts | 66° |
| 2026-04-14 15:33 | 49.97498 | 8.23985 | 4045 ft | 173 kts | 66° |
| 2026-04-14 15:34 | 49.97921 | 8.25726 | 3801 ft | 172 kts | 67° |
| 2026-04-14 15:34 | 49.98341 | 8.27460 | 3548 ft | 171 kts | 67° |
| 2026-04-14 15:34 | 49.98762 | 8.29197 | 3309 ft | 171 kts | 66° |
| 2026-04-14 15:34 | 49.99169 | 8.30880 | 3066 ft | 160 kts | 68° |
| 2026-04-14 15:35 | 49.99551 | 8.32461 | 2824 ft | 153 kts | 66° |
| 2026-04-14 15:35 | 49.99924 | 8.34003 | 2609 ft | 153 kts | 66° |
| 2026-04-14 15:35 | 50.00300 | 8.35558 | 2383 ft | 155 kts | 67° |
| 2026-04-14 15:35 | 50.00677 | 8.37122 | 2160 ft | 155 kts | 68° |
| 2026-04-14 15:36 | 50.01052 | 8.38677 | 1929 ft | 152 kts | 67° |
| 2026-04-14 15:36 | 50.01415 | 8.40182 | 1719 ft | 146 kts | 65° |
| 2026-04-14 15:36 | 50.01757 | 8.41605 | 1495 ft | 140 kts | 67° |
| 2026-04-14 15:36 | 50.02098 | 8.43018 | 1306 ft | 139 kts | 67° |
| 2026-04-14 15:37 | 50.02434 | 8.44413 | 1103 ft | 140 kts | 68° |
| 2026-04-14 15:37 | 50.02766 | 8.45833 | 922 ft | 140 kts | 67° |
| 2026-04-14 15:37 | 50.03104 | 8.47245 | 716 ft | 138 kts | 64° |
| 2026-04-14 15:37 | 50.03444 | 8.48641 | 541 ft | 138 kts | 66° |
| 2026-04-14 15:38 | 50.03785 | 8.50047 | 373 ft | 133 kts | 68° |
| 2026-04-14 15:38 | 50.04076 | 8.51279 | 353 ft | 106 kts | 64° |
| 2026-04-14 15:38 | 50.04225 | 8.51890 | 351 ft | 32 kts | 78° |
| 2026-04-14 15:38 | 50.04233 | 8.52164 | 345 ft | 24 kts | 96° |
| 2026-04-14 15:39 | 50.04214 | 8.52351 | 347 ft | 16 kts | 99° |
| 2026-04-14 15:39 | 50.04194 | 8.52531 | 354 ft | 18 kts | 99° |
| 2026-04-14 15:39 | 50.04208 | 8.52714 | 349 ft | 17 kts | 68° |
| 2026-04-14 15:39 | 50.04253 | 8.52889 | 351 ft | 19 kts | 68° |
| 2026-04-14 15:40 | 50.04300 | 8.53087 | 354 ft | 20 kts | 69° |
| 2026-04-14 15:40 | 50.04346 | 8.53279 | 353 ft | 18 kts | 69° |
| 2026-04-14 15:40 | 50.04389 | 8.53463 | 353 ft | 17 kts | 72° |
| 2026-04-14 15:40 | 50.04407 | 8.53654 | 346 ft | 19 kts | 83° |
| 2026-04-14 15:41 | 50.04420 | 8.53861 | 346 ft | 17 kts | 86° |
| 2026-04-14 15:41 | 50.04433 | 8.54058 | 349 ft | 19 kts | 84° |
| 2026-04-14 15:41 | 50.04445 | 8.54261 | 348 ft | 17 kts | 85° |
| 2026-04-14 15:41 | 50.04451 | 8.54460 | 346 ft | 20 kts | 95° |
| 2026-04-14 15:42 | 50.04397 | 8.54664 | 349 ft | 22 kts | 130° |
| 2026-04-14 15:42 | 50.04306 | 8.54774 | 351 ft | 14 kts | 151° |
| 2026-04-14 15:42 | 50.04220 | 8.54825 | 351 ft | 13 kts | 161° |
| 2026-04-14 15:42 | 50.04141 | 8.54869 | 349 ft | 11 kts | 159° |
| 2026-04-14 15:43 | 50.04070 | 8.54910 | 351 ft | 10 kts | 160° |
| 2026-04-14 15:43 | 50.04013 | 8.54927 | 348 ft | 8 kts | 192° |
| 2026-04-14 15:43 | 50.03983 | 8.54868 | 350 ft | 7 kts | 248° |
| 2026-04-14 15:43 | 50.03968 | 8.54804 | 351 ft | 6 kts | 249° |
| 2026-04-14 15:44 | 50.03951 | 8.54751 | 353 ft | 5 kts | 224° |
| 2026-04-14 15:44 | 50.03924 | 8.54755 | 347 ft | 3 kts | 162° |
| 2026-04-14 15:44 | 50.03904 | 8.54767 | 355 ft | 3 kts | 160° |
| 2026-04-14 15:44 | 50.03887 | 8.54777 | 351 ft | 2 kts | 159° |
| 2026-04-14 15:45 | 50.03875 | 8.54783 | 351 ft | 1 kts | 160° |
| 2026-04-14 15:45 | 50.03868 | 8.54788 | 351 ft | 1 kts | 160° |
| 2026-04-14 15:45 | 50.03861 | 8.54792 | 352 ft | 1 kts | 160° |
| 2026-04-14 15:45 | 50.03860 | 8.54792 | 351 ft | 0 kts | 159° |